Saturday, July 21, 2018, 12:22 AM GMT
Back to Local

CYSJ, Saint John, N. B.

Location: , , Canada Lat: 45.333
Local Time: 12:22 AM GMT ( 0:22 GMT) Lon: -65.883
Time Zone: GMT Elev: 337 ft

Show me the last for .
Show Decoded

2018-07-21 00:00 METAR CYSJ 210000Z 20003KT 15SM FEW220 SCT250 18/13 A3019 RMK CS1CI2 SLP225
                 DENSITY ALT 600FT =
2018-07-20 23:00 METAR CYSJ 202300Z 20009KT 15SM SKC 22/12 A3018 RMK SLP223 DENSITY ALT 1000FT =
2018-07-20 22:00 METAR CYSJ 202200Z 22005KT 15SM FEW300 27/09 A3017 RMK CI1 CI TR SLP220 DENSITY
                 ALT 1500FT =
2018-07-20 21:00 METAR CYSJ 202100Z 25004KT 220V290 15SM FEW300 27/10 A3018 RMK CI1 SLP223
                 DENSITY ALT 1600FT =
2018-07-20 20:00 METAR CYSJ 202000Z 23006KT 160V260 15SM FEW300 27/11 A3018 RMK CI1 SLP223
                 DENSITY ALT 1600FT =
2018-07-20 19:00 METAR CYSJ 201900Z 22010KT 170V240 15SM FEW300 27/12 A3019 RMK CI1 SLP225
                 DENSITY ALT 1500FT =
2018-07-20 18:00 METAR CYSJ 201800Z 19010KT 15SM FEW300 27/12 A3019 RMK CI1 SLP225 DENSITY ALT
                 1500FT =
2018-07-20 17:00 METAR CYSJ 201700Z 20009KT 170V250 15SM FEW300 26/12 A3019 RMK CI1 SLP226
                 DENSITY ALT 1500FT =
2018-07-20 16:00 METAR CYSJ 201600Z 19010KT 170V240 15SM FEW300 27/13 A3019 RMK CI1 SLP226
                 DENSITY ALT 1600FT =
2018-07-20 15:00 METAR CYSJ 201500Z 21005KT 150V240 15SM FEW290 26/13 A3019 RMK CI1 SLP226
                 DENSITY ALT 1500FT =
2018-07-20 14:00 METAR CYSJ 201400Z VRB06KT 15SM FEW270 26/14 A3019 RMK CI1 SLP225 DENSITY ALT
                 1400FT =
2018-07-20 13:00 METAR CYSJ 201300Z VRB02KT 15SM FEW270 23/14 A3018 RMK CI1 SLP223 DENSITY ALT
                 1100FT =
2018-07-20 12:00 METAR CYSJ 201200Z 20004KT 160V240 15SM FEW260 19/13 A3018 RMK CI1 SLP222
                 DENSITY ALT 600FT =
2018-07-20 11:00 METAR CYSJ 201100Z 00000KT 15SM FEW260 16/13 A3017 RMK CI1 SLP217 =
2018-07-20 10:00 METAR CYSJ 201000Z 00000KT 15SM FEW260 09/09 A3015 RMK CI2 SLP212 =
2018-07-20 09:00 METAR CYSJ 200900Z VRB02KT 15SM FEW260 07/06 A3014 RMK CI2 SLP208 =
2018-07-20 08:00 METAR CYSJ 200800Z 05003KT 15SM SKC 07/07 A3012 RMK SLP203 =
2018-07-20 07:00 METAR CYSJ 200700Z 00000KT 15SM SKC 07/07 A3011 RMK SLP200 =
2018-07-20 06:00 METAR CYSJ 200600Z 00000KT 15SM SKC 08/07 A3011 RMK SLP199 =
2018-07-20 05:00 METAR CYSJ 200500Z 00000KT 15SM SKC 09/08 A3011 RMK SLP198 =
2018-07-20 04:00 METAR CYSJ 200400Z 00000KT 15SM FEW260 10/09 A3009 RMK CI1 SLP193 =
2018-07-20 03:00 METAR CYSJ 200300Z 00000KT 15SM FEW260 10/09 A3009 RMK CI2 SLP191 =
2018-07-20 02:00 METAR CYSJ 200200Z 00000KT 15SM FEW260 12/10 A3008 RMK CI2 SLP190 =
2018-07-20 01:00 METAR CYSJ 200100Z 22002KT 15SM FEW260 15/10 A3007 RMK CI2 SLP184 DENSITY ALT
                 400FT =

Support USWX by starting your Amazon purchase here.